Time;durP1;ratioP1;P1;durP2;ratioP2;P2;SDS_P1;SDS_P2;PMS_P1;PMS_P2;Temp;Humidity;BMP_temperature;BMP_pressure;BME280_temperature;BME280_humidity;BME280_pressure;Samples;Min_cycle;Max_cycle;Signal;HPM_P1;HPM_P2
2021/12/11 03:30:31;;;;;;;;;;;0.30;99.90;;;-1.79;100.00;100491.19;56754;54;149380442;31
2021/12/11 03:33:07;;;;;;;16.65;9.00;;;0.10;99.90;;;-1.75;100.00;100489.91;2567033;30;137672;-37
2021/12/11 03:35:35;;;;;;;19.55;9.77;;;0.10;99.90;;;-1.69;100.00;100488.53;2567934;30;138143;-38
2021/12/11 03:38:04;;;;;;;19.75;10.65;;;0.20;99.90;;;-1.63;100.00;100495.97;2567363;30;137474;-38
2021/12/11 03:40:33;;;;;;;21.42;10.93;;;0.20;99.90;;;-1.55;100.00;100489.94;2566933;30;138290;-38
2021/12/11 03:43:06;;;;;;;23.95;11.85;;;0.30;99.90;;;-1.57;100.00;100493.75;2568010;30;138496;-38
2021/12/11 03:45:38;;;;;;;24.05;11.77;;;0.30;99.90;;;-1.58;100.00;100492.88;2566706;30;137761;-37
2021/12/11 03:48:20;;;;;;;26.13;12.40;;;0.30;99.90;;;-1.53;100.00;100509.34;2566369;30;137907;-37
2021/12/11 03:50:48;;;;;;;23.65;11.40;;;0.40;99.90;;;-1.55;100.00;100497.94;2568489;30;139053;-38
2021/12/11 03:53:16;;;;;;;24.92;11.70;;;0.40;99.90;;;-1.52;100.00;100510.22;2565917;30;138462;-38
2021/12/11 03:55:53;;;;;;;27.13;12.50;;;0.40;99.90;;;-1.47;100.00;100516.81;2566585;30;138280;-38
2021/12/11 03:58:21;;;;;;;22.40;11.65;;;0.40;99.90;;;-1.47;100.00;100521.34;2566812;30;137397;-38
2021/12/11 04:01:17;;;;;;;21.35;11.10;;;0.40;99.90;;;-1.47;100.00;100526.69;2568826;30;137471;-37
2021/12/11 04:03:49;;;;;;;38.25;12.85;;;0.40;99.90;;;-1.45;100.00;100530.06;2567241;30;137734;-38
2021/12/11 04:06:18;;;;;;;24.98;12.02;;;0.50;99.90;;;-1.39;100.00;100534.03;2567628;30;137295;-38
2021/12/11 04:08:47;;;;;;;25.58;12.82;;;0.50;99.90;;;-1.39;100.00;100545.56;2567405;30;136847;-38
2021/12/11 04:11:21;;;;;;;25.80;11.77;;;0.50;99.90;;;-1.37;100.00;100554.28;2567600;30;138966;-38
2021/12/11 04:13:54;;;;;;;24.30;12.77;;;0.50;99.90;;;-1.32;100.00;100553.88;2568548;30;136958;-38
2021/12/11 04:16:24;;;;;;;27.05;13.07;;;0.60;99.90;;;-1.30;100.00;100549.22;2568864;30;138529;-38
2021/12/11 04:18:52;;;;;;;25.58;12.57;;;0.60;99.90;;;-1.25;100.00;100564.88;2566559;30;138742;-37
2021/12/11 04:21:21;;;;;;;22.55;12.25;;;0.60;99.90;;;-1.24;100.00;100566.56;2567935;30;138299;-38
2021/12/11 04:23:49;;;;;;;24.75;12.07;;;0.60;99.90;;;-1.26;100.00;100572.03;2568308;30;137202;-37
2021/12/11 04:26:17;;;;;;;29.88;12.68;;;0.60;99.90;;;-1.31;100.00;100569.81;2567665;30;137915;-38
2021/12/11 04:28:47;;;;;;;24.83;13.25;;;0.60;99.90;;;-1.25;100.00;100583.59;2569816;30;137454;-38
2021/12/11 04:31:24;;;;;;;27.05;13.10;;;0.60;99.90;;;-1.19;100.00;100581.22;2568674;30;138315;-38
2021/12/11 04:33:57;;;;;;;33.60;13.50;;;0.70;99.90;;;-1.12;100.00;100591.34;2567679;30;137614;-38
2021/12/11 04:36:32;;;;;;;28.60;13.57;;;0.70;99.90;;;-1.13;100.00;100595.03;2567380;30;137710;-38
2021/12/11 04:39:03;;;;;;;33.40;13.52;;;0.70;99.90;;;-1.09;100.00;100602.59;2566964;30;138556;-37
2021/12/11 04:41:43;;;;;;;31.80;14.15;;;0.70;99.90;;;-1.09;100.00;100602.59;2568208;30;138042;-38
2021/12/11 04:44:21;;;;;;;27.80;13.68;;;0.80;99.90;;;-1.05;100.00;100611.22;2567877;30;137534;-38
2021/12/11 04:46:49;;;;;;;34.60;14.77;;;0.80;99.90;;;-1.04;100.00;100619.13;2567495;30;137919;-38
2021/12/11 04:49:28;;;;;;;39.70;15.80;;;0.80;99.90;;;-1.00;100.00;100608.94;2569147;30;136840;-38
2021/12/11 05:00:17;;;;;;;34.05;15.27;;;0.90;99.90;;;-0.92;100.00;100618.97;2567054;30;137563;-38
2021/12/11 05:13:24;;;;;;;37.83;16.42;;;1.00;99.90;;;-0.77;100.00;100633.63;2567160;30;138368;-38
2021/12/11 05:15:59;;;;;;;41.53;17.77;;;1.10;99.90;;;-0.65;100.00;100638.81;2566940;30;137423;-38
2021/12/11 05:18:32;;;;;;;39.83;17.52;;;1.10;99.90;;;-0.60;100.00;100655.28;2568618;30;138550;-38
2021/12/11 05:21:12;;;;;;;39.55;16.83;;;1.20;99.90;;;-0.63;100.00;100647.56;2569056;30;137593;-38
2021/12/11 05:23:41;;;;;;;40.13;16.50;;;1.20;99.90;;;-0.63;100.00;100652.91;2568326;30;138177;-38
2021/12/11 05:26:08;;;;;;;45.30;18.35;;;1.20;99.90;;;-0.61;100.00;100661.66;2568043;30;137566;-38
2021/12/11 05:28:36;;;;;;;44.50;19.25;;;1.20;99.90;;;-0.55;100.00;100661.06;2567693;30;137488;-38
2021/12/11 05:31:08;;;;;;;44.88;18.52;;;1.30;99.90;;;-0.52;100.00;100666.16;2568684;30;136901;-38
2021/12/11 05:33:39;;;;;;;42.40;18.55;;;1.30;99.90;;;-0.55;100.00;100663.75;2567953;30;137548;-38
2021/12/11 05:36:10;;;;;;;43.05;18.10;;;1.30;99.90;;;-0.51;100.00;100675.03;2565909;30;138417;-37
2021/12/11 05:38:41;;;;;;;47.92;19.73;;;1.30;99.90;;;-0.48;100.00;100675.59;2568342;30;138550;-37
2021/12/11 05:41:13;;;;;;;49.53;20.13;;;1.30;99.90;;;-0.51;100.00;100670.53;2566987;30;137587;-37
2021/12/11 05:43:42;;;;;;;49.08;19.35;;;1.30;99.90;;;-0.44;100.00;100690.41;2568135;30;138967;-37
2021/12/11 05:46:15;;;;;;;45.58;19.50;;;1.40;99.90;;;-0.44;100.00;100693.09;2567481;30;137400;-37
2021/12/11 05:48:47;;;;;;;48.30;19.20;;;1.40;99.90;;;-0.44;100.00;100703.81;2567326;30;139216;-37
2021/12/11 05:51:20;;;;;;;45.08;18.10;;;1.40;99.90;;;-0.44;100.00;100717.22;2567303;30;137145;-38
2021/12/11 05:53:59;;;;;;;46.90;18.10;;;1.40;99.90;;;-0.45;100.00;100718.22;2567925;30;138282;-38
2021/12/11 05:56:32;;;;;;;43.53;19.13;;;1.40;99.90;;;-0.45;100.00;100722.72;2567483;30;137211;-38
2021/12/11 05:59:02;;;;;;;44.30;18.63;;;1.40;99.90;;;-0.46;100.00;100721.88;2567137;30;138374;-38
2021/12/11 06:02:01;;;;;;;43.55;18.05;;;1.40;99.90;;;-0.50;100.00;100719.63;2567998;30;137476;-38
2021/12/11 06:04:34;;;;;;;47.53;19.88;;;1.40;99.90;;;-0.43;100.00;100720.72;2568083;30;137983;-38
2021/12/11 06:07:07;;;;;;;54.70;21.10;;;1.40;99.90;;;-0.44;100.00;100719.91;2570415;30;136749;-38
2021/12/11 06:09:38;;;;;;;47.42;18.15;;;1.40;99.90;;;-0.45;100.00;100720.03;2570230;30;138310;-38
2021/12/11 06:12:11;;;;;;;40.35;17.75;;;1.40;99.90;;;-0.44;100.00;100727.94;2568398;30;137526;-38
2021/12/11 06:14:42;;;;;;;41.08;18.00;;;1.40;99.90;;;-0.44;100.00;100738.66;2569070;30;139119;-37
2021/12/11 06:17:15;;;;;;;42.63;18.45;;;1.40;99.90;;;-0.46;100.00;100739.78;2569449;30;137380;-38
2021/12/11 06:19:50;;;;;;;41.92;17.63;;;1.40;99.90;;;-0.44;100.00;100741.34;2569975;30;138408;-37
2021/12/11 06:22:23;;;;;;;44.28;20.20;;;1.40;99.90;;;-0.41;100.00;100750.09;2569540;30;138685;-38
2021/12/11 06:24:53;;;;;;;44.22;18.92;;;1.40;99.90;;;-0.39;100.00;100753.47;2569464;30;137269;-37
2021/12/11 06:27:23;;;;;;;47.40;19.95;;;1.40;99.90;;;-0.30;100.00;100756.16;2569595;30;139152;-37
2021/12/11 06:29:51;;;;;;;47.22;19.38;;;1.50;99.90;;;-0.28;100.00;100755.97;2569058;30;137391;-38
2021/12/11 06:32:21;;;;;;;;;;;1.50;99.90;;;-0.23;100.00;100763.63;2570536;30;137808;-38
2021/12/11 06:34:49;;;;;;;44.05;17.38;;;1.60;99.90;;;-0.24;100.00;100760.09;2568959;30;138483;-38
2021/12/11 06:37:20;;;;;;;49.67;20.17;;;1.60;99.90;;;-0.29;100.00;100767.69;2569028;30;137931;-37
2021/12/11 06:39:52;;;;;;;51.83;19.80;;;1.60;99.90;;;-0.22;100.00;100782.25;2568873;30;137464;-38
2021/12/11 06:42:20;;;;;;;48.75;19.15;;;1.60;99.90;;;-0.20;100.00;100782.97;2569064;30;137622;-38
2021/12/11 06:44:49;;;;;;;57.67;21.30;;;1.60;99.90;;;-0.12;100.00;100794.78;2569363;30;138366;-38
2021/12/11 06:47:17;;;;;;;51.55;21.05;;;1.70;99.90;;;-0.14;100.00;100794.94;2568819;30;138384;-38
2021/12/11 06:49:45;;;;;;;50.53;20.88;;;1.70;99.90;;;-0.15;100.00;100799.47;2568628;30;138854;-38
2021/12/11 06:52:21;;;;;;;48.42;19.40;;;1.70;99.90;;;-0.12;100.00;100808.22;2570290;30;137213;-38
2021/12/11 06:54:50;;;;;;;50.13;19.67;;;1.70;99.90;;;-0.16;100.00;100808.50;2568251;30;138652;-38
2021/12/11 06:57:22;;;;;;;41.60;18.65;;;1.70;99.90;;;-0.12;100.00;100814.44;2568918;30;136976;-38
2021/12/11 06:59:50;;;;;;;50.90;19.33;;;1.70;99.90;;;-0.12;100.00;100813.56;2569055;30;138175;-38
2021/12/11 07:02:20;;;;;;;46.97;17.33;;;1.70;99.90;;;-0.15;100.00;100818.22;2569383;30;137573;-37
2021/12/11 07:04:50;;;;;;;44.65;18.83;;;1.70;99.90;;;-0.18;100.00;100815.84;2570930;30;138138;-38
2021/12/11 07:07:22;;;;;;;49.28;20.20;;;1.70;99.90;;;-0.16;100.00;100824.59;2568696;30;136877;-38
2021/12/11 07:09:53;;;;;;;45.28;18.65;;;1.70;99.90;;;-0.17;100.00;100822.03;2569168;30;139699;-37
2021/12/11 07:12:21;;;;;;;50.55;19.65;;;1.70;99.90;;;-0.18;100.00;100831.94;2566429;30;137495;-38
2021/12/11 07:14:49;;;;;;;;;;;1.60;99.90;;;-0.18;100.00;100837.28;2569756;30;139156;-38
2021/12/11 07:17:17;;;;;;;43.55;16.95;;;1.60;99.90;;;-0.20;100.00;100844.63;2569077;30;137321;-38
2021/12/11 07:19:48;;;;;;;47.17;18.15;;;1.60;99.90;;;-0.19;100.00;100853.50;2568644;30;138518;-38
2021/12/11 07:22:17;;;;;;;46.25;18.65;;;1.60;99.90;;;-0.18;100.00;100848.03;2567149;30;137557;-38
2021/12/11 07:24:59;;;;;;;42.30;17.38;;;1.60;99.90;;;-0.16;100.00;100855.91;2566356;30;138027;-37
2021/12/11 07:27:28;;;;;;;47.75;18.02;;;1.70;99.90;;;-0.15;100.00;100853.09;2568614;30;138370;-37
2021/12/11 07:29:56;;;;;;;42.33;16.90;;;1.70;99.90;;;-0.12;100.00;100856.50;2568123;30;137424;-38
2021/12/11 07:32:24;;;;;;;44.33;17.75;;;1.70;99.90;;;-0.10;100.00;100857.19;2569344;30;137570;-38
2021/12/11 07:34:52;;;;;;;47.38;17.45;;;1.70;99.90;;;-0.09;100.00;100861.56;2568070;30;138309;-38
2021/12/11 07:37:19;;;;;;;45.13;16.70;;;1.70;99.90;;;-0.05;100.00;100879.06;2569541;30;137491;-37
2021/12/11 07:39:47;;;;;;;44.05;17.85;;;1.70;99.90;;;-0.05;100.00;100873.69;2565726;30;138602;-37
2021/12/11 07:42:15;;;;;;;44.13;18.15;;;1.80;99.90;;;0.02;100.00;100888.25;2567766;30;137447;-38
2021/12/11 07:44:42;;;;;;;52.05;18.83;;;1.80;99.90;;;0.06;100.00;100895.03;2568324;30;138579;-38
2021/12/11 07:47:10;;;;;;;55.67;19.38;;;1.80;99.90;;;0.13;100.00;100885.41;2568275;30;137621;-38
2021/12/11 07:49:38;;;;;;;51.72;19.50;;;1.90;99.90;;;0.16;100.00;100891.50;2567161;30;137302;-38
2021/12/11 07:52:06;;;;;;;60.42;21.23;;;1.90;99.90;;;0.20;100.00;100898.25;2569513;30;136982;-37
2021/12/11 07:54:34;;;;;;;63.78;22.25;;;2.00;99.90;;;0.22;100.00;100896.28;2565768;30;138481;-38
2021/12/11 07:57:02;;;;;;;56.42;20.25;;;2.00;99.90;;;0.26;100.00;100903.03;2569115;30;137763;-38
2021/12/11 07:59:30;;;;;;;;;;;2.00;99.90;;;0.30;100.00;100899.13;2567306;30;137368;-38
2021/12/11 08:01:57;;;;;;;57.03;18.02;;;2.10;99.90;;;0.35;100.00;100906.72;2568307;30;137800;-37
2021/12/11 08:04:25;;;;;;;61.80;21.40;;;2.10;99.90;;;0.43;100.00;100918.44;2566616;30;137308;-37
2021/12/11 08:06:53;;;;;;;61.00;21.58;;;2.20;99.90;;;0.46;100.00;100924.50;2567679;30;137806;-38
2021/12/11 08:09:23;;;;;;;56.10;21.90;;;2.20;99.90;;;0.47;100.00;100916.31;2568891;30;137207;-37
2021/12/11 08:11:51;;;;;;;58.65;22.35;;;2.20;99.90;;;0.51;100.00;100923.09;2568262;30;138557;-38
2021/12/11 08:14:22;;;;;;;62.47;20.92;;;2.30;99.90;;;0.53;100.00;100925.63;2568319;30;137339;-37
2021/12/11 08:16:56;;;;;;;61.92;22.40;;;2.30;99.90;;;0.64;100.00;100930.84;2569916;30;137610;-38
2021/12/11 08:19:28;;;;;;;53.53;20.17;;;2.40;99.90;;;0.65;100.00;100934.34;2568495;30;138621;-38
2021/12/11 08:21:59;;;;;;;58.83;20.92;;;2.40;99.90;;;0.69;100.00;100936.63;2568961;30;137883;-38
2021/12/11 08:24:28;;;;;;;65.75;22.40;;;2.40;99.90;;;0.75;100.00;100939.72;2569174;30;138354;-38
2021/12/11 08:27:06;;;;;;;67.10;23.38;;;2.50;99.90;;;0.83;100.00;100940.69;2565929;30;137507;-37
2021/12/11 08:29:33;;;;;;;65.65;23.30;;;2.50;99.90;;;0.91;100.00;100949.84;2569627;30;139049;-38
2021/12/11 08:32:02;;;;;;;68.50;22.58;;;2.60;99.90;;;0.92;100.00;100947.03;2568418;30;138187;-38
2021/12/11 08:34:30;;;;;;;76.90;23.30;;;2.60;99.90;;;0.98;100.00;100950.97;2567955;30;138612;-38
2021/12/11 08:37:01;;;;;;;75.90;23.73;;;2.70;99.90;;;0.94;100.00;100942.34;2565664;30;138294;-38
2021/12/11 08:39:29;;;;;;;62.28;22.95;;;2.70;99.90;;;1.03;100.00;100959.44;2567350;30;138270;-38
2021/12/11 08:42:00;;;;;;;65.90;22.20;;;2.80;99.90;;;1.05;100.00;100967.34;2566915;30;138368;-38
2021/12/11 08:44:35;;;;;;;67.25;23.27;;;2.80;99.90;;;1.06;100.00;100963.66;2566114;30;139518;-37
2021/12/11 08:47:09;;;;;;;69.25;22.05;;;2.80;99.90;;;1.09;100.00;100974.97;2568269;30;137385;-38
2021/12/11 08:49:41;;;;;;;66.55;22.35;;;2.80;99.90;;;1.11;100.00;100974.84;2567329;30;137602;-37
2021/12/11 08:52:22;;;;;;;73.00;24.42;;;2.80;99.90;;;1.15;100.00;100984.31;2567786;30;137571;-38
2021/12/11 08:54:51;;;;;;;69.55;21.80;;;2.90;99.90;;;1.20;100.00;100987.38;2566008;30;139199;-38
2021/12/11 08:57:27;;;;;;;64.35;21.33;;;2.90;99.90;;;1.26;100.00;100992.16;2568996;30;137540;-38
2021/12/11 09:00:01;;;;;;;61.47;21.83;;;2.90;99.90;;;1.27;100.00;100988.47;2565536;30;139586;-38
2021/12/11 09:02:55;;;;;;;62.30;21.75;;;3.00;99.90;;;1.37;100.00;100990.31;2568276;30;138415;-38
2021/12/11 09:05:38;;;;;;;59.67;21.25;;;3.10;99.90;;;1.38;100.00;100984.75;2566962;30;138216;-38
2021/12/11 09:08:20;;;;;;;63.35;20.95;;;3.10;99.90;;;1.45;100.00;100993.09;2569119;30;138551;-38
2021/12/11 09:11:10;;;;;;;64.60;22.23;;;3.10;99.90;;;1.44;100.00;101007.53;2567114;30;138346;-38
2021/12/11 09:13:48;;;;;;;56.88;20.73;;;3.20;99.90;;;1.43;100.00;101013.91;2566270;30;137875;-38
2021/12/11 09:16:24;;;;;;;;;;;3.20;99.90;;;1.43;100.00;101019.28;2567167;30;139024;-38
2021/12/11 09:19:28;;;;;;;64.32;20.90;;;3.10;99.90;;;1.44;100.00;101018.28;2568412;30;137432;-37
2021/12/11 09:22:25;;;;;;;57.83;19.65;;;3.20;99.90;;;1.48;100.00;101008.94;2568287;30;138457;-37
2021/12/11 09:25:16;;;;;;;59.50;19.30;;;3.20;99.90;;;1.48;100.00;101010.78;2566604;30;137807;-37
2021/12/11 09:27:50;;;;;;;62.45;21.67;;;3.20;99.90;;;1.53;100.00;101011.19;2568539;30;138390;-38
2021/12/11 09:30:30;;;;;;;60.55;21.20;;;3.20;99.90;;;1.60;100.00;101020.34;2567466;30;137662;-37
2021/12/11 09:33:08;;;;;;;58.70;20.83;;;3.30;99.90;;;1.57;100.00;101023.34;2576941;30;138997;-39
2021/12/11 09:35:42;;;;;;;62.08;20.05;;;3.30;99.90;;;1.56;100.00;101022.47;2567074;30;137600;-40
2021/12/11 09:38:19;;;;;;;65.68;21.17;;;3.30;99.90;;;1.61;100.00;101015.81;2567191;30;138264;-40
2021/12/11 09:40:55;;;;;;;65.43;21.45;;;3.30;99.90;;;1.64;100.00;101020.91;2568370;30;137023;-40
2021/12/11 09:43:39;;;;;;;64.43;20.80;;;3.30;99.90;;;1.67;100.00;101029.50;2568214;30;139448;-39
2021/12/11 09:46:13;;;;;;;65.82;21.52;;;3.40;99.90;;;1.67;100.00;101031.34;2568181;30;137359;-39
2021/12/11 09:48:42;;;;;;;61.53;19.80;;;3.40;99.90;;;1.67;100.00;101036.75;2567693;30;137353;-40
2021/12/11 09:51:14;;;;;;;59.88;20.58;;;3.40;99.90;;;1.67;100.00;101034.88;2567782;30;137761;-40
2021/12/11 09:53:52;;;;;;;61.05;21.17;;;3.40;99.90;;;1.74;100.00;101035.13;2567996;30;138030;-40
2021/12/11 09:56:31;;;;;;;67.95;22.42;;;3.40;99.90;;;1.74;100.00;101040.53;2567166;30;137648;-39
2021/12/11 09:59:05;;;;;;;63.17;20.92;;;3.40;99.90;;;1.76;100.00;101035.84;2566235;30;138372;-40
2021/12/11 10:01:39;;;;;;;64.78;22.25;;;3.50;99.90;;;1.80;100.00;101034.53;2568101;30;136995;-39
2021/12/11 10:04:17;;;;;;;66.43;21.83;;;3.50;99.90;;;1.87;100.00;101040.16;2565263;30;138322;-40
2021/12/11 10:09:38;;;;;;;62.50;21.75;;;3.60;99.90;;;1.96;100.00;101038.44;2568187;30;138413;-39
2021/12/11 10:12:24;;;;;;;64.28;21.60;;;3.60;99.90;;;2.02;100.00;101048.59;2568317;30;138419;-39
2021/12/11 10:15:04;;;;;;;62.33;21.80;;;3.70;99.90;;;1.99;100.00;101054.28;2566868;30;138440;-40
2021/12/11 10:17:43;;;;;;;57.30;21.05;;;3.70;99.90;;;1.97;100.00;101049.03;2567747;30;137686;-40
2021/12/11 10:20:23;;;;;;;64.70;21.65;;;3.70;99.90;;;1.97;100.00;101048.19;2568501;30;137234;-40
2021/12/11 10:22:57;;;;;;;59.80;20.67;;;3.70;99.90;;;1.95;100.00;101055.56;2567689;30;137488;-39
2021/12/11 10:25:31;;;;;;;59.85;20.10;;;3.70;99.90;;;1.92;100.00;101056.72;2567249;30;139210;-39
2021/12/11 10:28:08;;;;;;;52.80;19.38;;;3.60;99.90;;;1.91;100.00;101055.00;2567797;30;137413;-40
2021/12/11 10:30:45;;;;;;;58.03;21.50;;;3.60;99.90;;;1.96;100.00;101066.16;2568667;30;138333;-40
2021/12/11 10:33:20;;;;;;;62.13;21.33;;;3.70;99.90;;;1.97;100.00;101067.03;2568009;30;137022;-39
2021/12/11 10:35:57;;;;;;;62.65;20.63;;;3.70;99.90;;;1.99;100.00;101071.28;2566115;30;139547;-39
2021/12/11 10:38:26;;;;;;;60.08;21.35;;;3.70;99.90;;;2.00;100.00;101070.28;2566038;30;137689;-40
2021/12/11 10:41:11;;;;;;;56.63;19.33;;;3.70;99.90;;;2.01;100.00;101077.38;2568073;30;138496;-40
2021/12/11 10:43:57;;;;;;;59.55;19.83;;;3.70;99.90;;;2.04;100.00;101078.06;2566666;30;137539;-40
2021/12/11 10:46:36;;;;;;;57.72;20.85;;;3.70;99.90;;;2.08;100.00;101080.28;2567423;30;138256;-40
2021/12/11 10:49:08;;;;;;;57.15;21.70;;;3.80;99.90;;;2.11;100.00;101077.28;2567972;30;136889;-40
2021/12/11 10:51:44;;;;;;;57.63;21.25;;;3.80;99.90;;;2.07;100.00;101075.88;2568165;30;137840;-40
2021/12/11 10:54:17;;;;;;;56.40;19.42;;;3.80;99.90;;;2.08;100.00;101076.75;2567364;30;137688;-40
2021/12/11 10:56:48;;;;;;;59.05;22.23;;;3.80;99.90;;;2.08;100.00;101082.13;2567951;30;138123;-40
2021/12/11 10:59:29;;;;;;;52.40;19.95;;;3.80;99.90;;;2.08;100.00;101074.06;2567988;30;138504;-40
2021/12/11 11:02:13;;;;;;;58.70;20.73;;;3.80;99.90;;;2.09;100.00;101079.28;2568423;30;137377;-40
2021/12/11 11:04:51;;;;;;;57.63;19.35;;;3.80;99.90;;;2.09;100.00;101073.88;2568310;30;137321;-40
2021/12/11 11:07:21;;;;;;;55.55;20.25;;;3.80;99.90;;;2.13;100.00;101079.84;2567969;30;138506;-40
2021/12/11 11:09:51;;;;;;;60.10;19.58;;;3.80;99.90;;;2.19;100.00;101078.41;2567010;30;137856;-40
2021/12/11 11:12:25;;;;;;;51.20;19.27;;;3.90;99.90;;;2.18;100.00;101077.53;2567538;30;138356;-40
2021/12/11 11:14:55;;;;;;;53.53;20.75;;;3.90;99.90;;;2.21;100.00;101084.47;2567895;30;137216;-40
2021/12/11 11:17:33;;;;;;;55.65;19.27;;;3.90;99.90;;;2.23;100.00;101083.31;2566975;30;138304;-40
2021/12/11 11:20:07;;;;;;;49.10;18.38;;;3.90;99.90;;;2.25;100.00;101096.63;2568476;30;138332;-40
2021/12/11 11:22:42;;;;;;;54.00;19.33;;;3.90;99.90;;;2.25;100.00;101100.16;2568507;30;137768;-40
2021/12/11 11:25:19;;;;;;;50.15;19.13;;;3.90;99.90;;;2.27;100.00;101103.56;2567204;30;137634;-40
2021/12/11 11:27:52;;;;;;;53.30;19.30;;;4.00;99.90;;;2.33;100.00;101110.19;2567631;30;137135;-40
2021/12/11 11:30:27;;;;;;;51.58;19.13;;;4.00;99.90;;;2.35;100.00;101104.66;2567429;30;137757;-40
2021/12/11 11:32:57;;;;;;;51.88;19.05;;;4.00;99.90;;;2.39;100.00;101117.69;2567605;30;138419;-40
2021/12/11 11:35:30;;;;;;;51.13;18.48;;;4.00;99.90;;;2.41;100.00;101112.97;2567641;30;137411;-40
2021/12/11 11:38:02;;;;;;;49.00;17.98;;;4.10;99.90;;;2.46;100.00;101123.28;2568395;30;138273;-40
2021/12/11 11:40:36;;;;;;;49.38;19.20;;;4.10;99.90;;;2.49;100.00;101117.59;2568770;30;137506;-40
2021/12/11 11:43:06;;;;;;;50.00;19.17;;;4.20;99.90;;;2.54;100.00;101125.22;2568482;30;138297;-40
2021/12/11 11:45:35;;;;;;;45.10;17.42;;;4.20;99.90;;;2.60;100.00;101121.91;2567817;30;136839;-40
2021/12/11 11:48:05;;;;;;;46.05;17.15;;;4.20;99.90;;;2.65;100.00;101133.09;2568355;30;137278;-40
2021/12/11 11:50:45;;;;;;;49.78;18.48;;;4.30;99.90;;;2.71;100.00;101137.88;2565428;30;136799;-40
2021/12/11 11:53:13;;;;;;;47.08;18.15;;;4.40;99.90;;;2.78;100.00;101142.63;2567580;30;138272;-40
2021/12/11 11:55:48;;;;;;;41.47;16.85;;;4.40;99.90;;;2.80;100.00;101140.63;2567078;30;138558;-40
2021/12/11 11:58:17;;;;;;;46.22;18.52;;;4.50;99.90;;;2.85;100.00;101139.19;2568534;30;138384;-40
2021/12/11 12:00:57;;;;;;;46.63;17.98;;;4.50;99.90;;;2.89;100.00;101137.00;2567723;30;137495;-40
2021/12/11 12:03:29;;;;;;;45.28;17.98;;;4.50;99.90;;;2.95;100.00;101140.94;2568195;30;137155;-40
2021/12/11 12:06:10;;;;;;;40.72;16.58;;;4.50;99.90;;;3.04;100.00;101147.25;2565224;30;137536;-40
2021/12/11 12:08:42;;;;;;;38.42;16.13;;;4.60;99.90;;;3.07;100.00;101160.44;2567327;30;137859;-40
2021/12/11 12:11:11;;;;;;;40.63;16.60;;;4.70;99.90;;;3.15;100.00;101163.19;2568750;30;138475;-39
2021/12/11 12:13:40;;;;;;;39.33;16.20;;;4.70;99.90;;;3.19;100.00;101161.03;2567851;30;136845;-40
2021/12/11 12:16:31;;;;;;;40.80;16.13;;;4.80;99.90;;;3.26;100.00;101171.06;2567851;30;137545;-40
2021/12/11 12:18:59;;;;;;;38.00;15.10;;;4.90;99.90;;;3.29;100.00;101159.09;2568505;30;138287;-40
2021/12/11 12:21:29;;;;;;;31.33;13.27;;;4.90;99.90;;;3.30;100.00;101177.81;2568583;30;138376;-40
2021/12/11 12:23:57;;;;;;;35.10;13.82;;;4.90;99.90;;;3.33;100.00;101184.75;2567571;30;138443;-40
2021/12/11 12:26:28;;;;;;;;;;;5.00;99.90;;;3.36;100.00;101188.97;2568562;30;137555;-40
2021/12/11 12:28:59;;;;;;;25.95;12.40;;;5.00;99.90;;;3.39;100.00;101194.94;2568841;30;137098;-40
2021/12/11 12:31:40;;;;;;;32.38;12.95;;;5.00;99.90;;;3.46;100.00;101195.16;2567640;30;137873;-40
2021/12/11 12:34:12;;;;;;;29.33;12.80;;;5.10;99.90;;;3.52;100.00;101204.44;2567747;30;137688;-40
2021/12/11 12:36:43;;;;;;;25.25;12.60;;;5.20;99.90;;;3.59;100.00;101209.06;2567399;30;138084;-39
2021/12/11 12:39:18;;;;;;;28.60;12.70;;;5.20;99.90;;;3.60;100.00;101212.63;2567079;30;137416;-40
2021/12/11 12:42:05;;;;;;;28.30;12.98;;;5.20;99.90;;;3.62;100.00;101204.34;2569266;30;137608;-40
2021/12/11 12:44:35;;;;;;;25.25;12.88;;;5.20;99.90;;;3.62;100.00;101207.91;2565831;30;137393;-40
2021/12/11 12:47:19;;;;;;;28.65;14.05;;;5.20;99.90;;;3.59;100.00;101222.56;2568278;30;136805;-40
2021/12/11 12:49:52;;;;;;;29.95;16.00;;;5.20;99.90;;;3.58;100.00;101226.25;2568992;30;138227;-40
2021/12/11 12:52:35;;;;;;;35.95;16.52;;;5.20;99.90;;;3.65;100.00;101231.88;2569091;30;137514;-40
2021/12/11 12:55:36;;;;;;;30.33;15.43;;;5.30;99.90;;;3.66;100.00;101230.03;2566388;30;138309;-40
2021/12/11 12:58:13;;;;;;;37.10;16.30;;;5.30;99.90;;;3.63;100.00;101243.84;2568093;30;137172;-40
2021/12/11 13:00:51;;;;;;;29.92;15.18;;;5.30;99.90;;;3.65;100.00;101244.53;2567827;30;138172;-40
2021/12/11 13:03:26;;;;;;;34.38;15.52;;;5.20;99.90;;;3.66;100.00;101246.22;2568571;30;138206;-40
2021/12/11 13:06:13;;;;;;;29.85;15.45;;;5.30;99.90;;;3.72;100.00;101245.63;2568414;30;136838;-40
2021/12/11 13:08:49;;;;;;;28.08;15.18;;;5.30;99.90;;;3.77;100.00;101250.50;2567697;30;136845;-40
2021/12/11 13:11:35;;;;;;;30.20;15.07;;;5.40;99.90;;;3.67;100.00;101256.00;2568021;30;138380;-40
2021/12/11 13:14:04;;;;;;;30.88;15.02;;;5.30;99.90;;;3.59;100.00;101256.81;2567052;30;137080;-40
2021/12/11 13:16:38;;;;;;;28.70;14.85;;;5.30;99.90;;;3.64;100.00;101267.13;2565801;30;138020;-40
2021/12/11 13:19:20;;;;;;;27.40;14.65;;;5.30;99.90;;;3.62;100.00;101271.81;2565203;30;137323;-40
2021/12/11 13:22:17;;;;;;;24.90;13.38;;;5.20;99.90;;;3.57;100.00;101267.75;2567436;30;139242;-40
2021/12/11 13:24:52;;;;;;;25.48;12.60;;;5.20;99.90;;;3.54;100.00;101284.25;2568241;30;137661;-40
2021/12/11 13:27:25;;;;;;;26.67;12.93;;;5.20;99.90;;;3.45;100.00;101287.88;2569376;30;137097;-40
2021/12/11 13:29:59;;;;;;;25.42;12.63;;;5.20;99.90;;;3.42;100.00;101290.84;2567756;30;138426;-40
2021/12/11 13:32:31;;;;;;;25.55;12.57;;;5.10;99.90;;;3.39;100.00;101299.25;2567971;30;138460;-40
2021/12/11 13:35:05;;;;;;;25.30;13.38;;;5.10;99.90;;;3.40;100.00;101299.13;2566848;30;137603;-40
2021/12/11 13:37:36;;;;;;;25.73;13.35;;;5.10;99.90;;;3.36;100.00;101302.28;2569032;30;137465;-40
2021/12/11 13:40:10;;;;;;;22.45;11.85;;;5.00;99.90;;;3.34;100.00;101301.56;2568862;30;136922;-40
2021/12/11 13:42:39;;;;;;;25.23;12.68;;;5.00;99.90;;;3.36;100.00;101302.28;2568562;30;138564;-40
2021/12/11 13:45:26;;;;;;;24.48;12.63;;;5.00;99.90;;;3.33;100.00;101307.97;2564852;30;138577;-40
2021/12/11 13:47:54;;;;;;;28.35;13.23;;;5.00;99.90;;;3.38;100.00;101308.34;2568483;30;138407;-40
2021/12/11 13:50:42;;;;;;;25.42;11.52;;;5.00;99.90;;;3.35;100.00;101319.47;2568278;30;137132;-39
2021/12/11 13:53:12;;;;;;;24.05;11.80;;;5.00;99.90;;;3.38;100.00;101327.25;2566753;30;138327;-40
2021/12/11 13:55:41;;;;;;;24.85;12.50;;;5.00;99.90;;;3.33;100.00;101330.41;2567470;30;137580;-40
2021/12/11 13:58:11;;;;;;;22.75;11.50;;;5.00;99.90;;;3.35;100.00;101335.63;2567674;30;138291;-40
2021/12/11 14:00:56;;;;;;;24.85;12.27;;;5.00;99.90;;;3.33;100.00;101337.66;2568182;30;137602;-40
2021/12/11 14:03:27;;;;;;;24.83;12.65;;;5.00;99.90;;;3.34;100.00;101336.66;2567709;30;138476;-40
2021/12/11 14:06:00;;;;;;;27.20;13.18;;;5.00;99.90;;;3.40;100.00;101341.41;2567098;30;137702;-40
2021/12/11 14:08:28;;;;;;;28.38;13.45;;;5.00;99.90;;;3.43;100.00;101347.38;2566439;30;138323;-39
2021/12/11 14:10:57;;;;;;;27.30;13.48;;;5.00;99.90;;;3.43;100.00;101346.50;2567383;30;137640;-40
2021/12/11 14:13:24;;;;;;;27.02;13.68;;;5.10;99.90;;;3.41;100.00;101341.28;2564181;30;138187;-40
2021/12/11 14:15:56;;;;;;;26.27;12.65;;;5.00;99.90;;;3.37;100.00;101352.53;2568140;30;138607;-40